sensor_id;sensor_type;location;lat;lon;timestamp;pressure;altitude;pressure_sealevel;temperature;humidity
58843;BME280;44614;54.356;10.100;2023-04-03T00:00:59;103174.34;;;-0.70;81.85
58843;BME280;44614;54.356;10.100;2023-04-03T00:03:24;103185.22;;;-0.72;82.14
58843;BME280;44614;54.356;10.100;2023-04-03T00:05:50;103190.69;;;-0.74;82.30
58843;BME280;44614;54.356;10.100;2023-04-03T00:08:16;103183.69;;;-0.76;82.33
58843;BME280;44614;54.356;10.100;2023-04-03T00:10:41;103190.19;;;-0.80;82.24
58843;BME280;44614;54.356;10.100;2023-04-03T00:13:07;103194.94;;;-0.84;82.48
58843;BME280;44614;54.356;10.100;2023-04-03T00:15:34;103189.59;;;-0.85;82.32
58843;BME280;44614;54.356;10.100;2023-04-03T00:18:00;103198.84;;;-0.89;82.82
58843;BME280;44614;54.356;10.100;2023-04-03T00:20:25;103195.47;;;-0.93;82.87
58843;BME280;44614;54.356;10.100;2023-04-03T00:22:52;103196.44;;;-0.94;82.85
58843;BME280;44614;54.356;10.100;2023-04-03T00:25:17;103202.00;;;-0.97;82.60
58843;BME280;44614;54.356;10.100;2023-04-03T00:27:42;103199.47;;;-1.00;83.11
58843;BME280;44614;54.356;10.100;2023-04-03T00:30:11;103203.13;;;-1.01;82.75
58843;BME280;44614;54.356;10.100;2023-04-03T00:32:37;103205.03;;;-1.03;82.89
58843;BME280;44614;54.356;10.100;2023-04-03T00:35:03;103208.69;;;-1.04;82.86
58843;BME280;44614;54.356;10.100;2023-04-03T00:37:28;103203.69;;;-1.10;82.77
58843;BME280;44614;54.356;10.100;2023-04-03T00:39:54;103212.53;;;-1.08;83.02
58843;BME280;44614;54.356;10.100;2023-04-03T00:42:19;103212.63;;;-1.10;83.33
58843;BME280;44614;54.356;10.100;2023-04-03T00:47:12;103219.94;;;-1.12;83.00
58843;BME280;44614;54.356;10.100;2023-04-03T00:49:38;103204.38;;;-1.23;83.19
58843;BME280;44614;54.356;10.100;2023-04-03T00:52:11;103211.53;;;-1.21;83.03
58843;BME280;44614;54.356;10.100;2023-04-03T00:54:38;103182.06;;;-1.40;83.21
58843;BME280;44614;54.356;10.100;2023-04-03T00:57:05;103165.91;;;-1.56;83.50
58843;BME280;44614;54.356;10.100;2023-04-03T00:59:34;103218.81;;;-1.24;83.35
58843;BME280;44614;54.356;10.100;2023-04-03T01:02:00;103220.81;;;-1.27;83.21
58843;BME280;44614;54.356;10.100;2023-04-03T01:04:31;103223.63;;;-1.29;83.29
58843;BME280;44614;54.356;10.100;2023-04-03T01:07:01;103164.66;;;-1.66;83.38
58843;BME280;44614;54.356;10.100;2023-04-03T01:09:28;103209.06;;;-1.42;83.63
58843;BME280;44614;54.356;10.100;2023-04-03T01:11:54;103228.38;;;-1.34;83.55
58843;BME280;44614;54.356;10.100;2023-04-03T01:14:20;103216.94;;;-1.37;83.67
58843;BME280;44614;54.356;10.100;2023-04-03T01:16:54;103214.22;;;-1.37;83.72
58843;BME280;44614;54.356;10.100;2023-04-03T01:19:21;103175.28;;;-1.63;83.51
58843;BME280;44614;54.356;10.100;2023-04-03T01:21:52;103225.25;;;-1.42;83.92
58843;BME280;44614;54.356;10.100;2023-04-03T01:26:57;103164.56;;;-1.81;84.25
58843;BME280;44614;54.356;10.100;2023-04-03T01:29:23;103218.41;;;-1.48;84.35
58843;BME280;44614;54.356;10.100;2023-04-03T01:31:56;103213.19;;;-1.51;84.21
58843;BME280;44614;54.356;10.100;2023-04-03T01:34:22;103224.13;;;-1.54;84.29
58843;BME280;44614;54.356;10.100;2023-04-03T01:36:47;103224.28;;;-1.57;84.65
58843;BME280;44614;54.356;10.100;2023-04-03T01:39:13;103218.13;;;-1.59;84.84
58843;BME280;44614;54.356;10.100;2023-04-03T01:41:38;103216.47;;;-1.61;84.70
58843;BME280;44614;54.356;10.100;2023-04-03T01:44:04;103213.16;;;-1.66;84.86
58843;BME280;44614;54.356;10.100;2023-04-03T01:46:29;103200.28;;;-1.77;84.81
58843;BME280;44614;54.356;10.100;2023-04-03T01:48:55;103203.84;;;-1.77;84.76
58843;BME280;44614;54.356;10.100;2023-04-03T01:51:20;103222.22;;;-1.67;84.93
58843;BME280;44614;54.356;10.100;2023-04-03T01:53:46;103216.03;;;-1.69;84.75
58843;BME280;44614;54.356;10.100;2023-04-03T01:56:11;103222.38;;;-1.70;85.02
58843;BME280;44614;54.356;10.100;2023-04-03T01:58:36;103194.56;;;-1.87;85.22
58843;BME280;44614;54.356;10.100;2023-04-03T02:01:02;103219.94;;;-1.75;85.03
58843;BME280;44614;54.356;10.100;2023-04-03T02:03:27;103222.72;;;-1.77;85.01
58843;BME280;44614;54.356;10.100;2023-04-03T02:05:53;103217.47;;;-1.80;84.96
58843;BME280;44614;54.356;10.100;2023-04-03T02:08:18;103190.25;;;-1.91;85.07
58843;BME280;44614;54.356;10.100;2023-04-03T02:10:46;103227.56;;;-1.83;85.19
58843;BME280;44614;54.356;10.100;2023-04-03T02:13:11;103216.97;;;-1.86;85.24
58843;BME280;44614;54.356;10.100;2023-04-03T02:15:40;103210.88;;;-1.90;85.13
58843;BME280;44614;54.356;10.100;2023-04-03T02:18:06;103215.47;;;-1.92;85.44
58843;BME280;44614;54.356;10.100;2023-04-03T02:20:32;103177.19;;;-2.14;85.38
58843;BME280;44614;54.356;10.100;2023-04-03T02:22:58;103202.69;;;-2.04;85.41
58843;BME280;44614;54.356;10.100;2023-04-03T02:25:24;103212.22;;;-1.99;85.46
58843;BME280;44614;54.356;10.100;2023-04-03T02:27:49;103216.84;;;-2.01;85.38
58843;BME280;44614;54.356;10.100;2023-04-03T02:30:15;103169.19;;;-2.32;85.50
58843;BME280;44614;54.356;10.100;2023-04-03T02:32:42;103223.34;;;-2.05;85.50
58843;BME280;44614;54.356;10.100;2023-04-03T02:35:08;103177.09;;;-2.29;85.54
58843;BME280;44614;54.356;10.100;2023-04-03T02:37:34;103177.09;;;-2.29;85.65
58843;BME280;44614;54.356;10.100;2023-04-03T02:39:59;103198.28;;;-2.23;85.72
58843;BME280;44614;54.356;10.100;2023-04-03T02:42:25;103213.97;;;-2.13;85.89
58843;BME280;44614;54.356;10.100;2023-04-03T02:44:50;103213.16;;;-2.15;85.94
58843;BME280;44614;54.356;10.100;2023-04-03T02:47:15;103207.00;;;-2.17;85.82
58843;BME280;44614;54.356;10.100;2023-04-03T02:49:41;103203.13;;;-2.29;85.93
58843;BME280;44614;54.356;10.100;2023-04-03T02:52:08;103208.03;;;-2.20;86.04
58843;BME280;44614;54.356;10.100;2023-04-03T02:54:34;103210.78;;;-2.22;86.15
58843;BME280;44614;54.356;10.100;2023-04-03T02:56:59;103193.09;;;-2.43;85.97
58843;BME280;44614;54.356;10.100;2023-04-03T02:59:24;103209.28;;;-2.27;86.28
58843;BME280;44614;54.356;10.100;2023-04-03T03:01:50;103206.91;;;-2.33;86.46
58843;BME280;44614;54.356;10.100;2023-04-03T03:04:15;103154.66;;;-2.62;86.27
58843;BME280;44614;54.356;10.100;2023-04-03T03:06:40;103215.84;;;-2.33;86.21
58843;BME280;44614;54.356;10.100;2023-04-03T03:09:07;103210.88;;;-2.40;86.30
58843;BME280;44614;54.356;10.100;2023-04-03T03:11:32;103215.09;;;-2.35;86.08
58843;BME280;44614;54.356;10.100;2023-04-03T03:13:58;103218.75;;;-2.36;86.17
58843;BME280;44614;54.356;10.100;2023-04-03T03:16:23;103216.19;;;-2.39;86.32
58843;BME280;44614;54.356;10.100;2023-04-03T03:18:48;103211.78;;;-2.40;86.22
58843;BME280;44614;54.356;10.100;2023-04-03T03:21:14;103218.19;;;-2.42;86.50
58843;BME280;44614;54.356;10.100;2023-04-03T03:23:39;103222.75;;;-2.45;86.29
58843;BME280;44614;54.356;10.100;2023-04-03T03:26:08;103214.78;;;-2.46;86.67
58843;BME280;44614;54.356;10.100;2023-04-03T03:28:34;103216.66;;;-2.48;86.46
58843;BME280;44614;54.356;10.100;2023-04-03T03:31:01;103221.53;;;-2.55;87.58
58843;BME280;44614;54.356;10.100;2023-04-03T03:33:26;103218.13;;;-2.58;87.31
58843;BME280;44614;54.356;10.100;2023-04-03T03:35:52;103221.75;;;-2.59;87.27
58843;BME280;44614;54.356;10.100;2023-04-03T03:38:18;103212.88;;;-2.61;87.10
58843;BME280;44614;54.356;10.100;2023-04-03T03:40:44;103225.47;;;-2.62;87.13
58843;BME280;44614;54.356;10.100;2023-04-03T03:43:09;103222.94;;;-2.65;87.31
58843;BME280;44614;54.356;10.100;2023-04-03T03:45:35;103225.63;;;-2.65;87.21
58843;BME280;44614;54.356;10.100;2023-04-03T03:48:01;103187.31;;;-2.87;87.32
58843;BME280;44614;54.356;10.100;2023-04-03T03:50:26;103223.19;;;-2.70;87.38
58843;BME280;44614;54.356;10.100;2023-04-03T03:52:51;103224.13;;;-2.71;87.57
58843;BME280;44614;54.356;10.100;2023-04-03T03:55:17;103221.66;;;-2.75;87.44
58843;BME280;44614;54.356;10.100;2023-04-03T03:57:42;103233.13;;;-2.72;87.36
58843;BME280;44614;54.356;10.100;2023-04-03T04:00:09;103232.34;;;-2.74;87.56
58843;BME280;44614;54.356;10.100;2023-04-03T04:02:34;103230.69;;;-2.76;87.50
58843;BME280;44614;54.356;10.100;2023-04-03T04:05:00;103231.69;;;-2.79;87.53
58843;BME280;44614;54.356;10.100;2023-04-03T04:07:25;103235.44;;;-2.81;87.74
58843;BME280;44614;54.356;10.100;2023-04-03T04:09:53;103234.56;;;-2.82;87.71
58843;BME280;44614;54.356;10.100;2023-04-03T04:12:18;103201.53;;;-3.03;87.61
58843;BME280;44614;54.356;10.100;2023-04-03T04:14:45;103233.84;;;-2.85;87.61
58843;BME280;44614;54.356;10.100;2023-04-03T04:17:12;103204.31;;;-3.04;87.47
58843;BME280;44614;54.356;10.100;2023-04-03T04:19:38;103238.38;;;-2.86;87.78
58843;BME280;44614;54.356;10.100;2023-04-03T04:22:03;103242.94;;;-2.88;87.28
58843;BME280;44614;54.356;10.100;2023-04-03T04:24:29;103239.47;;;-2.90;87.53
58843;BME280;44614;54.356;10.100;2023-04-03T04:26:54;103248.47;;;-2.91;87.74
58843;BME280;44614;54.356;10.100;2023-04-03T04:29:20;103215.22;;;-3.07;87.67
58843;BME280;44614;54.356;10.100;2023-04-03T04:31:45;103249.50;;;-2.93;87.73
58843;BME280;44614;54.356;10.100;2023-04-03T04:34:11;103245.03;;;-2.95;87.79
58843;BME280;44614;54.356;10.100;2023-04-03T04:36:38;103248.78;;;-2.97;87.76
58843;BME280;44614;54.356;10.100;2023-04-03T04:39:03;103245.28;;;-2.99;87.84
58843;BME280;44614;54.356;10.100;2023-04-03T04:41:28;103220.13;;;-3.15;87.67
58843;BME280;44614;54.356;10.100;2023-04-03T04:43:53;103264.03;;;-2.98;87.73
58843;BME280;44614;54.356;10.100;2023-04-03T04:46:19;103237.97;;;-3.14;87.84
58843;BME280;44614;54.356;10.100;2023-04-03T04:48:44;103255.16;;;-3.00;87.95
58843;BME280;44614;54.356;10.100;2023-04-03T04:51:10;103155.19;;;-3.61;87.80
58843;BME280;44614;54.356;10.100;2023-04-03T04:53:37;103266.94;;;-3.02;87.63
58843;BME280;44614;54.356;10.100;2023-04-03T04:56:02;103260.13;;;-3.09;87.87
58843;BME280;44614;54.356;10.100;2023-04-03T04:58:28;103261.69;;;-3.05;88.06
58843;BME280;44614;54.356;10.100;2023-04-03T05:01:00;103276.03;;;-3.05;87.93
58843;BME280;44614;54.356;10.100;2023-04-03T05:03:26;103269.84;;;-3.07;87.98
58843;BME280;44614;54.356;10.100;2023-04-03T05:05:51;103261.88;;;-3.08;88.34
58843;BME280;44614;54.356;10.100;2023-04-03T05:08:17;103267.06;;;-3.05;88.51
58843;BME280;44614;54.356;10.100;2023-04-03T05:10:42;103272.47;;;-3.05;88.52
58843;BME280;44614;54.356;10.100;2023-04-03T05:13:07;103202.66;;;-3.43;88.30
58843;BME280;44614;54.356;10.100;2023-04-03T05:15:33;103272.47;;;-3.05;88.45
58843;BME280;44614;54.356;10.100;2023-04-03T05:17:58;103267.53;;;-3.14;88.69
58843;BME280;44614;54.356;10.100;2023-04-03T05:20:24;103267.97;;;-3.05;88.65
58843;BME280;44614;54.356;10.100;2023-04-03T05:22:50;103274.22;;;-3.04;88.77
58843;BME280;44614;54.356;10.100;2023-04-03T05:25:15;103245.47;;;-3.21;88.74
58843;BME280;44614;54.356;10.100;2023-04-03T05:27:41;103265.44;;;-3.08;88.84
58843;BME280;44614;54.356;10.100;2023-04-03T05:30:06;103278.50;;;-3.00;88.58
58843;BME280;44614;54.356;10.100;2023-04-03T05:32:32;103274.84;;;-2.99;88.83
58843;BME280;44614;54.356;10.100;2023-04-03T05:34:57;103283.72;;;-2.97;88.82
58843;BME280;44614;54.356;10.100;2023-04-03T05:37:23;103283.66;;;-2.96;88.87
58843;BME280;44614;54.356;10.100;2023-04-03T05:39:48;103296.13;;;-2.95;88.79
58843;BME280;44614;54.356;10.100;2023-04-03T05:42:13;103288.06;;;-2.95;88.79
58843;BME280;44614;54.356;10.100;2023-04-03T05:44:39;103292.44;;;-2.92;89.05
58843;BME280;44614;54.356;10.100;2023-04-03T05:47:04;103304.00;;;-2.90;89.07
58843;BME280;44614;54.356;10.100;2023-04-03T05:49:30;103294.09;;;-2.89;89.21
58843;BME280;44614;54.356;10.100;2023-04-03T05:51:55;103305.41;;;-2.83;89.87
58843;BME280;44614;54.356;10.100;2023-04-03T05:56:50;103307.13;;;-2.63;89.77
58843;BME280;44614;54.356;10.100;2023-04-03T05:59:16;103309.09;;;-2.49;90.03
58843;BME280;44614;54.356;10.100;2023-04-03T06:01:42;103307.63;;;-2.37;90.39
58843;BME280;44614;54.356;10.100;2023-04-03T06:04:07;103313.31;;;-2.26;90.66
58843;BME280;44614;54.356;10.100;2023-04-03T06:06:45;103318.88;;;-2.12;90.26
58843;BME280;44614;54.356;10.100;2023-04-03T06:09:10;103318.31;;;-2.01;90.16
58843;BME280;44614;54.356;10.100;2023-04-03T06:11:36;103305.31;;;-1.93;90.14
58843;BME280;44614;54.356;10.100;2023-04-03T06:14:01;103278.63;;;-1.98;89.89
58843;BME280;44614;54.356;10.100;2023-04-03T06:16:28;103319.00;;;-1.64;90.12
58843;BME280;44614;54.356;10.100;2023-04-03T06:18:54;103306.03;;;-1.56;90.28
58843;BME280;44614;54.356;10.100;2023-04-03T06:21:20;103313.16;;;-1.39;90.32
58843;BME280;44614;54.356;10.100;2023-04-03T06:23:45;103309.72;;;-1.26;90.64
58843;BME280;44614;54.356;10.100;2023-04-03T06:26:11;103315.13;;;-1.10;90.58
58843;BME280;44614;54.356;10.100;2023-04-03T06:28:36;103313.28;;;-0.93;90.89
58843;BME280;44614;54.356;10.100;2023-04-03T06:31:01;103307.00;;;-0.78;90.82
58843;BME280;44614;54.356;10.100;2023-04-03T06:33:26;103313.16;;;-0.60;91.05
58843;BME280;44614;54.356;10.100;2023-04-03T06:35:57;103310.44;;;-0.44;90.52
58843;BME280;44614;54.356;10.100;2023-04-03T06:38:22;103319.16;;;-0.25;90.68
58843;BME280;44614;54.356;10.100;2023-04-03T06:40:48;103317.19;;;-0.07;90.82
58843;BME280;44614;54.356;10.100;2023-04-03T06:43:13;103315.09;;;0.12;90.27
58843;BME280;44614;54.356;10.100;2023-04-03T06:45:38;103322.09;;;0.31;90.50
58843;BME280;44614;54.356;10.100;2023-04-03T06:48:04;103322.44;;;0.53;90.13
58843;BME280;44614;54.356;10.100;2023-04-03T06:50:29;103327.28;;;0.77;90.03
58843;BME280;44614;54.356;10.100;2023-04-03T06:52:54;103323.28;;;0.96;89.48
58843;BME280;44614;54.356;10.100;2023-04-03T06:55:20;103318.50;;;1.14;89.22
58843;BME280;44614;54.356;10.100;2023-04-03T06:57:45;103324.44;;;1.34;89.24
58843;BME280;44614;54.356;10.100;2023-04-03T07:00:11;103320.09;;;1.58;88.79
58843;BME280;44614;54.356;10.100;2023-04-03T07:02:37;103335.19;;;1.75;88.24
58843;BME280;44614;54.356;10.100;2023-04-03T07:05:02;103318.97;;;1.88;87.71
58843;BME280;44614;54.356;10.100;2023-04-03T07:07:28;103324.06;;;2.05;86.52
58843;BME280;44614;54.356;10.100;2023-04-03T07:09:53;103317.50;;;2.22;86.22
58843;BME280;44614;54.356;10.100;2023-04-03T07:12:18;103318.91;;;2.40;86.34
58843;BME280;44614;54.356;10.100;2023-04-03T07:14:44;103322.25;;;2.57;86.07
58843;BME280;44614;54.356;10.100;2023-04-03T07:17:09;103317.56;;;2.72;85.20
58843;BME280;44614;54.356;10.100;2023-04-03T07:19:34;103318.19;;;2.88;85.22
58843;BME280;44614;54.356;10.100;2023-04-03T07:22:00;103316.53;;;2.98;84.36
58843;BME280;44614;54.356;10.100;2023-04-03T07:24:25;103316.34;;;3.12;83.84
58843;BME280;44614;54.356;10.100;2023-04-03T07:26:54;103317.63;;;3.20;83.61
58843;BME280;44614;54.356;10.100;2023-04-03T07:29:19;103325.97;;;3.29;83.22
58843;BME280;44614;54.356;10.100;2023-04-03T07:31:46;103319.03;;;3.49;83.69
58843;BME280;44614;54.356;10.100;2023-04-03T08:54:51;103305.44;;;5.74;60.27
58843;BME280;44614;54.356;10.100;2023-04-03T08:57:30;103304.56;;;5.73;61.66
58843;BME280;44614;54.356;10.100;2023-04-03T09:00:06;103303.44;;;5.76;60.93
58843;BME280;44614;54.356;10.100;2023-04-03T09:02:35;103302.84;;;6.04;63.36
58843;BME280;44614;54.356;10.100;2023-04-03T09:05:31;103296.38;;;6.05;58.05
58843;BME280;44614;54.356;10.100;2023-04-03T09:08:05;103303.88;;;6.13;59.81
58843;BME280;44614;54.356;10.100;2023-04-03T09:10:35;103297.34;;;6.25;62.07
58843;BME280;44614;54.356;10.100;2023-04-03T09:13:08;103293.56;;;6.38;62.26
58843;BME280;44614;54.356;10.100;2023-04-03T09:15:38;103300.19;;;6.45;60.74
58843;BME280;44614;54.356;10.100;2023-04-03T09:20:41;103296.47;;;6.76;62.39
58843;BME280;44614;54.356;10.100;2023-04-03T09:23:19;103306.22;;;6.48;57.31
58843;BME280;44614;54.356;10.100;2023-04-03T09:25:47;103305.78;;;6.43;58.16
58843;BME280;44614;54.356;10.100;2023-04-03T09:28:14;103292.25;;;6.11;57.80
58843;BME280;44614;54.356;10.100;2023-04-03T09:30:40;103306.75;;;6.12;52.26
58843;BME280;44614;54.356;10.100;2023-04-03T09:33:06;103306.44;;;6.26;60.01
58843;BME280;44614;54.356;10.100;2023-04-03T09:35:36;103320.88;;;5.96;57.81
58843;BME280;44614;54.356;10.100;2023-04-03T09:40:38;103323.47;;;5.86;60.27
58843;BME280;44614;54.356;10.100;2023-04-03T09:43:22;103314.16;;;6.00;57.70
58843;BME280;44614;54.356;10.100;2023-04-03T09:45:49;103320.41;;;6.12;59.95
58843;BME280;44614;54.356;10.100;2023-04-03T09:48:18;103311.34;;;6.11;59.55
58843;BME280;44614;54.356;10.100;2023-04-03T09:55:50;103287.59;;;6.53;57.82
58843;BME280;44614;54.356;10.100;2023-04-03T09:58:28;103295.19;;;6.50;54.90
58843;BME280;44614;54.356;10.100;2023-04-03T10:00:58;103290.16;;;6.45;56.57
58843;BME280;44614;54.356;10.100;2023-04-03T10:03:29;103289.41;;;6.43;57.50
58843;BME280;44614;54.356;10.100;2023-04-03T10:05:56;103287.44;;;6.55;57.84
58843;BME280;44614;54.356;10.100;2023-04-03T10:08:29;103284.66;;;6.76;57.43
58843;BME280;44614;54.356;10.100;2023-04-03T10:11:15;103279.38;;;6.84;53.83
58843;BME280;44614;54.356;10.100;2023-04-03T10:16:20;103274.50;;;6.97;53.67
58843;BME280;44614;54.356;10.100;2023-04-03T10:29:02;103274.00;;;7.23;56.31
58843;BME280;44614;54.356;10.100;2023-04-03T10:31:50;103265.78;;;7.32;57.64
58843;BME280;44614;54.356;10.100;2023-04-03T10:34:38;103269.69;;;7.30;53.33
58843;BME280;44614;54.356;10.100;2023-04-03T10:37:18;103265.38;;;7.37;59.33
58843;BME280;44614;54.356;10.100;2023-04-03T10:45:57;103253.81;;;7.92;57.47
58843;BME280;44614;54.356;10.100;2023-04-03T10:51:14;103246.19;;;7.95;58.88
58843;BME280;44614;54.356;10.100;2023-04-03T10:53:57;103245.41;;;8.13;60.37
58843;BME280;44614;54.356;10.100;2023-04-03T10:56:37;103245.16;;;8.06;60.00
58843;BME280;44614;54.356;10.100;2023-04-03T10:59:16;103243.28;;;8.06;60.03
58843;BME280;44614;54.356;10.100;2023-04-03T11:01:46;103246.47;;;8.02;57.57
58843;BME280;44614;54.356;10.100;2023-04-03T11:04:14;103250.72;;;7.48;56.10
58843;BME280;44614;54.356;10.100;2023-04-03T11:06:47;103242.06;;;7.23;57.18
58843;BME280;44614;54.356;10.100;2023-04-03T11:09:23;103241.47;;;7.20;57.77
58843;BME280;44614;54.356;10.100;2023-04-03T11:11:55;103230.56;;;7.10;57.87
58843;BME280;44614;54.356;10.100;2023-04-03T11:14:26;103241.16;;;7.03;55.07
58843;BME280;44614;54.356;10.100;2023-04-03T11:17:04;103237.72;;;7.01;50.50
58843;BME280;44614;54.356;10.100;2023-04-03T11:19:45;103239.31;;;7.04;56.12
58843;BME280;44614;54.356;10.100;2023-04-03T11:22:25;103239.19;;;7.44;58.31
58843;BME280;44614;54.356;10.100;2023-04-03T11:27:40;103226.81;;;7.60;52.22
58843;BME280;44614;54.356;10.100;2023-04-03T11:30:14;103233.44;;;7.18;53.89
58843;BME280;44614;54.356;10.100;2023-04-03T11:35:36;103216.31;;;7.45;53.94
58843;BME280;44614;54.356;10.100;2023-04-03T11:38:04;103227.13;;;7.37;54.31
58843;BME280;44614;54.356;10.100;2023-04-03T11:40:34;103219.47;;;7.31;57.04
58843;BME280;44614;54.356;10.100;2023-04-03T11:43:16;103216.28;;;7.55;57.00
58843;BME280;44614;54.356;10.100;2023-04-03T11:50:44;103201.34;;;7.30;56.57
58843;BME280;44614;54.356;10.100;2023-04-03T11:55:42;103213.81;;;7.81;56.86
58843;BME280;44614;54.356;10.100;2023-04-03T12:00:51;103200.88;;;7.73;56.42
58843;BME280;44614;54.356;10.100;2023-04-03T12:18:58;103208.28;;;8.10;55.73
58843;BME280;44614;54.356;10.100;2023-04-03T12:22:04;103226.41;;;8.11;50.37
58843;BME280;44614;54.356;10.100;2023-04-03T12:26:46;103201.56;;;8.32;57.74
58843;BME280;44614;54.356;10.100;2023-04-03T12:29:38;103204.69;;;8.92;57.84
58843;BME280;44614;54.356;10.100;2023-04-03T12:40:36;103194.91;;;9.87;45.80
58843;BME280;44614;54.356;10.100;2023-04-03T12:45:41;103175.41;;;10.24;52.93
58843;BME280;44614;54.356;10.100;2023-04-03T12:48:14;103187.53;;;10.98;56.22
58843;BME280;44614;54.356;10.100;2023-04-03T12:50:40;103193.34;;;10.87;52.39
58843;BME280;44614;54.356;10.100;2023-04-03T12:53:31;103199.91;;;10.18;54.94
58843;BME280;44614;54.356;10.100;2023-04-03T12:56:25;103201.31;;;11.07;53.88
58843;BME280;44614;54.356;10.100;2023-04-03T12:58:53;103188.44;;;11.73;54.88
58843;BME280;44614;54.356;10.100;2023-04-03T13:01:25;103197.56;;;12.06;51.34
58843;BME280;44614;54.356;10.100;2023-04-03T13:03:56;103186.03;;;12.02;53.26
58843;BME280;44614;54.356;10.100;2023-04-03T13:06:49;103202.28;;;10.81;38.54
58843;BME280;44614;54.356;10.100;2023-04-03T13:09:25;103211.59;;;9.68;43.70
58843;BME280;44614;54.356;10.100;2023-04-03T13:14:24;103206.03;;;9.60;53.21
58843;BME280;44614;54.356;10.100;2023-04-03T13:19:34;103196.78;;;9.61;44.26
58843;BME280;44614;54.356;10.100;2023-04-03T13:22:06;103207.31;;;9.30;48.06
58843;BME280;44614;54.356;10.100;2023-04-03T13:24:36;103207.88;;;9.33;48.78
58843;BME280;44614;54.356;10.100;2023-04-03T13:27:03;103198.13;;;8.85;43.48
58843;BME280;44614;54.356;10.100;2023-04-03T13:29:30;103193.97;;;8.53;43.82
58843;BME280;44614;54.356;10.100;2023-04-03T13:31:57;103193.06;;;9.44;50.67
58843;BME280;44614;54.356;10.100;2023-04-03T13:34:23;103195.59;;;9.81;42.82
58843;BME280;44614;54.356;10.100;2023-04-03T13:41:44;103156.47;;;10.39;50.46
58843;BME280;44614;54.356;10.100;2023-04-03T13:46:52;103163.31;;;10.09;48.33
58843;BME280;44614;54.356;10.100;2023-04-03T13:49:26;103177.31;;;10.58;50.46
58843;BME280;44614;54.356;10.100;2023-04-03T13:51:53;103164.53;;;11.24;48.23
58843;BME280;44614;54.356;10.100;2023-04-03T13:54:23;103171.94;;;11.15;47.25
58843;BME280;44614;54.356;10.100;2023-04-03T13:56:54;103171.03;;;10.90;45.38
58843;BME280;44614;54.356;10.100;2023-04-03T13:59:32;103166.59;;;11.06;50.34
58843;BME280;44614;54.356;10.100;2023-04-03T14:02:21;103165.06;;;11.52;42.46
58843;BME280;44614;54.356;10.100;2023-04-03T14:04:56;103158.72;;;11.11;48.15
58843;BME280;44614;54.356;10.100;2023-04-03T14:07:25;103147.19;;;11.23;50.33
58843;BME280;44614;54.356;10.100;2023-04-03T14:09:52;103148.03;;;11.65;50.02
58843;BME280;44614;54.356;10.100;2023-04-03T14:12:25;103126.44;;;12.01;49.49
58843;BME280;44614;54.356;10.100;2023-04-03T14:14:52;103130.53;;;12.22;48.81
58843;BME280;44614;54.356;10.100;2023-04-03T14:17:20;103150.34;;;12.09;48.38
58843;BME280;44614;54.356;10.100;2023-04-03T14:19:49;103145.47;;;11.31;44.59
58843;BME280;44614;54.356;10.100;2023-04-03T14:24:43;103148.19;;;11.71;49.65
58843;BME280;44614;54.356;10.100;2023-04-03T14:29:41;103132.94;;;12.16;44.80
58843;BME280;44614;54.356;10.100;2023-04-03T14:32:06;103122.03;;;11.92;47.99
58843;BME280;44614;54.356;10.100;2023-04-03T14:34:32;103132.81;;;12.02;46.94
58843;BME280;44614;54.356;10.100;2023-04-03T14:36:57;103141.28;;;11.67;47.53
58843;BME280;44614;54.356;10.100;2023-04-03T14:39:22;103142.00;;;11.86;48.34
58843;BME280;44614;54.356;10.100;2023-04-03T14:41:48;103129.19;;;12.09;46.69
58843;BME280;44614;54.356;10.100;2023-04-03T14:44:13;103123.53;;;12.03;47.77
58843;BME280;44614;54.356;10.100;2023-04-03T14:46:41;103130.19;;;12.16;48.00
58843;BME280;44614;54.356;10.100;2023-04-03T14:49:15;103128.66;;;12.14;45.11
58843;BME280;44614;54.356;10.100;2023-04-03T14:51:43;103112.88;;;12.00;46.66
58843;BME280;44614;54.356;10.100;2023-04-03T14:54:17;103115.13;;;11.96;42.76
58843;BME280;44614;54.356;10.100;2023-04-03T14:56:44;103125.00;;;11.58;45.54
58843;BME280;44614;54.356;10.100;2023-04-03T14:59:11;103098.16;;;11.43;46.63
58843;BME280;44614;54.356;10.100;2023-04-03T15:01:37;103093.19;;;11.47;45.83
58843;BME280;44614;54.356;10.100;2023-04-03T15:04:10;103117.09;;;11.46;43.83
58843;BME280;44614;54.356;10.100;2023-04-03T15:06:36;103105.56;;;11.43;46.93
58843;BME280;44614;54.356;10.100;2023-04-03T15:09:01;103117.41;;;11.60;46.41
58843;BME280;44614;54.356;10.100;2023-04-03T15:11:28;103110.41;;;11.16;46.29
58843;BME280;44614;54.356;10.100;2023-04-03T15:13:53;103113.50;;;11.38;46.82
58843;BME280;44614;54.356;10.100;2023-04-03T15:16:19;103118.16;;;11.37;46.01
58843;BME280;44614;54.356;10.100;2023-04-03T15:18:45;103109.19;;;11.27;46.83
58843;BME280;44614;54.356;10.100;2023-04-03T15:21:12;103103.78;;;10.60;46.03
58843;BME280;44614;54.356;10.100;2023-04-03T15:23:38;103097.13;;;10.20;47.07
58843;BME280;44614;54.356;10.100;2023-04-03T15:26:04;103113.06;;;10.17;47.47
58843;BME280;44614;54.356;10.100;2023-04-03T15:28:36;103111.94;;;9.93;46.00
58843;BME280;44614;54.356;10.100;2023-04-03T15:31:03;103104.03;;;8.94;44.98
58843;BME280;44614;54.356;10.100;2023-04-03T15:33:29;103108.06;;;8.27;39.64
58843;BME280;44614;54.356;10.100;2023-04-03T15:35:55;103080.88;;;7.98;48.58
58843;BME280;44614;54.356;10.100;2023-04-03T15:38:20;103110.03;;;8.07;47.71
58843;BME280;44614;54.356;10.100;2023-04-03T15:40:46;103125.63;;;7.97;48.17
58843;BME280;44614;54.356;10.100;2023-04-03T15:43:14;103066.69;;;7.38;47.62
58843;BME280;44614;54.356;10.100;2023-04-03T15:45:41;103114.41;;;7.53;48.88
58843;BME280;44614;54.356;10.100;2023-04-03T15:48:07;103109.28;;;7.77;49.75
58843;BME280;44614;54.356;10.100;2023-04-03T15:50:33;103108.16;;;7.70;47.67